Time;durP1;ratioP1;P1;durP2;ratioP2;P2;SDS_P1;SDS_P2;PMS_P1;PMS_P2;Temp;Humidity;BMP_temperature;BMP_pressure;BME280_temperature;BME280_humidity;BME280_pressure;Samples;Min_cycle;Max_cycle;Signal;HPM_P1;HPM_P2
2022/03/12 00:01:40;;;;;;;12.15;6.53;;;;;;;1.97;40.77;100414.09;5088145;28;20476;-75
2022/03/12 00:04:06;;;;;;;14.57;6.82;;;;;;;2.02;40.53;100413.75;5053033;28;20028;-75
2022/03/12 00:06:32;;;;;;;12.60;6.43;;;;;;;2.01;40.56;100410.25;5053268;28;20035;-75
2022/03/12 00:08:58;;;;;;;14.82;7.25;;;;;;;1.99;40.39;100387.63;5069556;28;20126;-75
2022/03/12 00:11:27;;;;;;;14.75;7.05;;;;;;;1.98;40.51;100385.97;5069678;28;20032;-75
2022/03/12 00:13:53;;;;;;;14.88;7.40;;;;;;;2.00;40.66;100413.03;5069168;28;20036;-75
2022/03/12 00:16:27;;;;;;;20.70;6.97;;;;;;;1.92;40.60;100389.06;5053109;28;20074;-75
2022/03/12 00:18:55;;;;;;;16.08;6.68;;;;;;;1.97;40.56;100393.03;5087284;28;20032;-75
2022/03/12 00:21:27;;;;;;;14.45;6.57;;;;;;;1.95;40.73;100402.84;5070460;28;20028;-75
2022/03/12 00:23:55;;;;;;;12.85;6.00;;;;;;;1.87;40.72;100389.41;5087377;28;20037;-75
2022/03/12 00:26:22;;;;;;;12.35;5.68;;;;;;;2.02;40.27;100395.31;5052594;28;20024;-75
2022/03/12 00:28:50;;;;;;;13.57;6.47;;;;;;;1.99;40.36;100370.06;5069268;28;20051;-75
2022/03/12 00:31:15;;;;;;;16.65;6.57;;;;;;;1.96;40.27;100370.28;5052749;28;20047;-75
2022/03/12 00:33:41;;;;;;;18.10;7.97;;;;;;;1.90;41.01;100365.50;5068919;28;20031;-75
2022/03/12 00:36:06;;;;;;;18.93;7.00;;;;;;;1.86;40.55;100350.88;5052786;28;20381;-75
2022/03/12 00:38:32;;;;;;;14.75;6.68;;;;;;;1.90;40.37;100357.59;5068967;28;20157;-75
2022/03/12 00:40:57;;;;;;;12.47;6.23;;;;;;;1.89;39.86;100338.31;5087288;28;20031;-75
2022/03/12 00:43:23;;;;;;;12.52;7.18;;;;;;;1.96;40.06;100351.03;5069106;28;20115;-74
2022/03/12 00:45:49;;;;;;;14.60;6.30;;;;;;;1.93;40.11;100370.53;5052211;28;20067;-75
2022/03/12 00:48:16;;;;;;;17.13;6.53;;;;;;;1.93;40.16;100364.44;5069216;28;20054;-75
2022/03/12 00:50:42;;;;;;;16.67;7.43;;;;;;;1.83;40.23;100356.38;5068650;28;20043;-75
2022/03/12 00:53:08;;;;;;;13.50;6.30;;;;;;;1.81;40.17;100342.50;5087237;28;20039;-75
2022/03/12 00:55:34;;;;;;;21.00;7.80;;;;;;;1.87;40.16;100361.31;5051955;28;20020;-75
2022/03/12 00:57:59;;;;;;;14.38;6.25;;;;;;;1.83;40.23;100353.75;5069190;28;20089;-74
2022/03/12 01:00:26;;;;;;;15.55;7.32;;;;;;;1.84;40.12;100363.31;5068927;28;20039;-75
2022/03/12 01:02:52;;;;;;;13.32;6.03;;;;;;;1.77;40.08;100344.50;5087109;28;20469;-74
2022/03/12 01:05:24;;;;;;;14.63;6.63;;;;;;;1.73;40.30;100343.06;5086387;28;20035;-76
2022/03/12 01:07:52;;;;;;;15.10;6.47;;;;;;;1.69;40.51;100334.56;5052345;28;20629;-75
2022/03/12 01:10:17;;;;;;;14.32;6.85;;;;;;;1.64;40.81;100349.88;5051770;28;20081;-75
2022/03/12 01:12:43;;;;;;;15.27;6.30;;;;;;;1.67;40.41;100343.53;5068405;28;20032;-75
2022/03/12 01:15:10;;;;;;;14.60;6.75;;;;;;;1.64;40.34;100341.97;5051407;28;20096;-74
2022/03/12 01:17:38;;;;;;;15.65;6.40;;;;;;;1.60;40.38;100343.16;5086562;28;20024;-74
2022/03/12 01:20:05;;;;;;;13.27;5.90;;;;;;;1.65;40.41;100348.91;5068412;28;20508;-75
2022/03/12 01:22:33;;;;;;;12.60;6.40;;;;;;;1.60;40.25;100342.31;5086499;28;20036;-74
2022/03/12 01:24:58;;;;;;;15.82;6.55;;;;;;;1.62;40.70;100366.72;5068079;28;20020;-75
2022/03/12 01:27:23;;;;;;;13.13;6.05;;;;;;;1.44;40.60;100324.19;5068159;28;20032;-75
2022/03/12 01:29:49;;;;;;;13.00;5.93;;;;;;;1.51;40.66;100349.09;5068087;28;20604;-75
2022/03/12 01:32:15;;;;;;;10.38;5.78;;;;;;;1.40;40.88;100333.25;5086360;28;20040;-75
2022/03/12 01:34:40;;;;;;;12.13;6.63;;;;;;;1.42;41.00;100352.41;5086472;28;20956;-75
2022/03/12 01:37:05;;;;;;;14.70;5.97;;;;;;;1.45;40.87;100349.53;5051429;28;20286;-75
2022/03/12 01:39:32;;;;;;;14.03;6.97;;;;;;;1.29;40.97;100335.84;5051312;28;20084;-75
2022/03/12 01:41:57;;;;;;;14.75;6.63;;;;;;;1.26;41.33;100350.94;5051380;28;20043;-74
2022/03/12 01:44:23;;;;;;;13.52;5.63;;;;;;;1.23;41.52;100366.91;5068037;28;20128;-75
2022/03/12 01:46:49;;;;;;;17.13;6.63;;;;;;;1.21;41.73;100374.06;5086128;28;20031;-75
2022/03/12 01:49:19;;;;;;;;;;;;;;;1.25;41.66;100374.69;5051596;28;20040;-75
2022/03/12 01:51:46;;;;;;;14.68;6.60;;;;;;;1.20;41.73;100398.69;5051210;28;19911;-75
2022/03/12 01:54:16;;;;;;;15.93;7.50;;;;;;;1.04;41.98;100390.22;5067930;28;20048;-74
2022/03/12 01:56:42;;;;;;;15.00;6.63;;;;;;;1.09;41.93;100385.47;5067881;28;20032;-75
2022/03/12 01:59:07;;;;;;;14.50;5.95;;;;;;;1.09;42.05;100403.88;5067818;28;20043;-75
2022/03/12 02:01:32;;;;;;;13.73;7.40;;;;;;;1.03;42.24;100401.69;5086205;28;20153;-75
2022/03/12 02:04:03;;;;;;;14.13;6.80;;;;;;;1.10;41.99;100410.84;5045297;28;20275;-74
2022/03/12 02:06:28;;;;;;;14.50;6.57;;;;;;;1.05;41.85;100392.75;5093737;28;20111;-75
2022/03/12 02:08:58;;;;;;;15.98;7.05;;;;;;;0.97;41.93;100392.44;5086668;28;20123;-74
2022/03/12 02:11:29;;;;;;;15.30;7.93;;;;;;;1.01;41.90;100388.66;5055476;28;20515;-75
2022/03/12 02:14:08;;;;;;;15.13;6.68;;;;;;;1.06;41.85;100398.84;5071716;28;20117;-74
2022/03/12 02:16:34;;;;;;;14.45;6.40;;;;;;;0.99;41.86;100369.53;5071926;28;20070;-74
2022/03/12 02:19:01;;;;;;;14.02;5.95;;;;;;;0.94;42.08;100383.97;5071951;28;20046;-75
2022/03/12 02:21:34;;;;;;;;;;;;;;;0.95;42.07;100398.78;5072107;28;20447;-74
2022/03/12 02:24:02;;;;;;;14.02;6.30;;;;;;;0.87;42.37;100403.72;5089587;28;20383;-75
2022/03/12 02:26:28;;;;;;;15.40;7.35;;;;;;;0.89;42.36;100401.81;5089828;28;20069;-74
2022/03/12 02:28:53;;;;;;;14.50;6.53;;;;;;;0.81;42.53;100407.63;5071487;28;20400;-75
2022/03/12 02:31:23;;;;;;;18.33;6.53;;;;;;;0.74;42.69;100417.72;5071781;28;20369;-75
2022/03/12 02:33:48;;;;;;;11.20;5.78;;;;;;;0.80;42.57;100422.56;5089417;28;20043;-74
2022/03/12 02:36:19;;;;;;;15.33;7.10;;;;;;;0.78;42.57;100408.69;5054939;28;20024;-73
2022/03/12 02:38:48;;;;;;;16.20;6.97;;;;;;;0.82;42.41;100404.06;5071303;28;20043;-73
2022/03/12 02:41:14;;;;;;;15.88;6.47;;;;;;;0.80;42.50;100388.41;5071487;28;20047;-73
2022/03/12 02:43:43;;;;;;;14.52;6.65;;;;;;;0.76;42.28;100383.47;5071750;28;20050;-73
2022/03/12 02:46:09;;;;;;;13.93;6.53;;;;;;;0.83;42.52;100421.50;5094885;28;20055;-73
2022/03/12 02:48:35;;;;;;;14.63;7.00;;;;;;;0.74;42.74;100420.34;5075197;28;20075;-74
2022/03/12 02:51:01;;;;;;;13.23;7.33;;;;;;;0.64;43.06;100398.31;5072198;28;20043;-72
2022/03/12 02:53:26;;;;;;;12.52;7.13;;;;;;;0.65;42.82;100426.25;5089264;28;20274;-74
2022/03/12 02:55:52;;;;;;;12.77;6.30;;;;;;;0.71;42.60;100417.94;5070998;28;20028;-74
2022/03/12 02:58:17;;;;;;;16.55;7.95;;;;;;;0.70;42.38;100397.03;5089489;28;20476;-74
2022/03/12 03:00:43;;;;;;;13.10;6.45;;;;;;;0.66;42.54;100413.97;5089205;28;20146;-74
2022/03/12 03:03:08;;;;;;;15.85;7.05;;;;;;;0.77;42.23;100406.16;5071481;28;20031;-74
2022/03/12 03:05:46;;;;;;;12.43;6.43;;;;;;;0.63;42.58;100394.84;5087637;28;20158;-74
2022/03/12 03:08:17;;;;;;;13.40;7.50;;;;;;;0.68;42.34;100402.41;5088992;28;20055;-73
2022/03/12 03:10:44;;;;;;;13.27;6.05;;;;;;;0.60;42.35;100374.03;5070784;28;20061;-74
2022/03/12 03:13:29;;;;;;;12.52;7.38;;;;;;;0.54;42.81;100397.25;5054465;28;20122;-74
2022/03/12 03:15:59;;;;;;;17.33;7.28;;;;;;;0.59;42.75;100418.81;5054061;28;20032;-74
2022/03/12 03:18:29;;;;;;;20.10;7.22;;;;;;;0.46;43.00;100405.69;5070828;28;20066;-74
2022/03/12 03:20:56;;;;;;;14.65;7.35;;;;;;;0.48;43.19;100439.72;5053740;28;20038;-74
2022/03/12 03:23:25;;;;;;;15.52;6.72;;;;;;;0.40;43.23;100422.72;5088717;28;20065;-74
2022/03/12 03:25:51;;;;;;;11.45;5.93;;;;;;;0.34;43.35;100446.75;5070443;28;20040;-74
2022/03/12 03:28:17;;;;;;;13.57;6.93;;;;;;;0.35;43.32;100440.56;5070518;28;20115;-73
2022/03/12 03:30:42;;;;;;;15.73;7.32;;;;;;;0.39;43.33;100441.19;5070265;28;20543;-74
2022/03/12 03:33:11;;;;;;;13.85;6.47;;;;;;;0.37;43.03;100425.53;5088682;28;20074;-74
2022/03/12 03:35:40;;;;;;;15.07;6.55;;;;;;;0.31;43.47;100436.47;5070198;28;20043;-74
2022/03/12 03:38:11;;;;;;;19.27;6.85;;;;;;;0.32;43.47;100439.94;5070585;28;20682;-73
2022/03/12 03:40:37;;;;;;;12.50;6.88;;;;;;;0.26;43.44;100433.31;5088255;28;20048;-73
2022/03/12 03:43:06;;;;;;;13.77;6.47;;;;;;;0.32;43.44;100463.56;5053511;28;20119;-74
2022/03/12 03:45:31;;;;;;;13.77;6.40;;;;;;;0.26;43.42;100433.31;5070131;28;20040;-73
2022/03/12 03:47:57;;;;;;;13.82;6.32;;;;;;;0.21;43.51;100443.25;5070194;28;20040;-74
2022/03/12 03:50:26;;;;;;;11.95;5.85;;;;;;;0.35;43.40;100463.34;5069771;28;20042;-73
2022/03/12 03:53:03;;;;;;;11.15;5.85;;;;;;;0.19;43.49;100435.50;5070121;28;20040;-74
2022/03/12 03:55:33;;;;;;;13.65;6.68;;;;;;;0.23;43.74;100465.00;5053236;28;20024;-74
2022/03/12 03:58:00;;;;;;;17.70;7.78;;;;;;;0.19;43.79;100463.56;5070092;28;20033;-74
2022/03/12 04:00:26;;;;;;;10.60;6.07;;;;;;;0.11;43.74;100448.28;5086448;28;20024;-73
2022/03/12 04:03:02;;;;;;;;;;;;;;;0.19;43.73;100450.44;5088467;28;20093;-73
2022/03/12 04:05:34;;;;;;;12.63;6.53;;;;;;;0.10;44.08;100474.66;5069087;28;19916;-73
2022/03/12 04:08:00;;;;;;;14.23;6.85;;;;;;;0.05;44.44;100503.84;5087971;28;20071;-74
2022/03/12 04:10:29;;;;;;;15.07;6.63;;;;;;;0.03;44.40;100489.16;5087449;28;20048;-73
2022/03/12 04:12:57;;;;;;;13.63;7.28;;;;;;;-0.05;44.74;100508.88;5069735;28;20032;-74
2022/03/12 04:15:23;;;;;;;12.43;5.63;;;;;;;0.00;44.48;100516.44;5079835;22;20068;-70
2022/03/12 04:17:52;;;;;;;14.45;7.35;;;;;;;-0.07;44.67;100500.25;5062190;28;20283;-70
2022/03/12 04:20:22;;;;;;;16.40;7.30;;;;;;;-0.10;44.79;100510.91;5045384;28;20033;-70
2022/03/12 04:22:50;;;;;;;18.92;6.65;;;;;;;-0.17;45.01;100528.00;5046903;28;20123;-70
2022/03/12 04:25:16;;;;;;;19.35;6.47;;;;;;;-0.15;45.26;100560.25;5062360;28;20373;-71
2022/03/12 04:27:42;;;;;;;;;;;;;;;-0.18;45.12;100538.63;5045909;28;20396;-70
2022/03/12 04:30:09;;;;;;;14.32;6.07;;;;;;;-0.26;45.21;100528.59;5028965;28;19913;-70
2022/03/12 04:32:34;;;;;;;15.55;6.93;;;;;;;-0.33;45.40;100541.28;5028337;28;20056;-71
2022/03/12 04:34:59;;;;;;;14.37;6.90;;;;;;;-0.39;45.93;100553.94;5011996;28;20076;-71
2022/03/12 04:37:25;;;;;;;17.03;6.97;;;;;;;-0.44;45.88;100544.59;5046777;28;20564;-71
2022/03/12 04:39:50;;;;;;;13.67;6.03;;;;;;;-0.39;45.72;100573.16;5046849;28;20505;-71
2022/03/12 04:42:21;;;;;;;13.48;6.40;;;;;;;-0.42;45.85;100570.72;5046663;28;20274;-70
2022/03/12 04:44:48;;;;;;;16.13;6.13;;;;;;;-0.34;45.63;100585.97;5028698;28;20551;-70
2022/03/12 04:47:17;;;;;;;;;;;;;;;-0.32;45.72;100594.59;5046800;28;20031;-70
2022/03/12 04:49:43;;;;;;;13.73;6.90;;;;;;;-0.36;45.39;100567.69;5046332;28;19958;-70
2022/03/12 04:52:10;;;;;;;16.87;7.43;;;;;;;-0.38;45.51;100577.44;5061756;28;20033;-70
2022/03/12 04:54:36;;;;;;;14.15;6.85;;;;;;;-0.26;45.15;100581.06;5045156;28;20216;-69
2022/03/12 04:57:04;;;;;;;15.05;7.32;;;;;;;-0.34;45.09;100565.00;5046532;28;20083;-70
2022/03/12 04:59:29;;;;;;;13.50;6.68;;;;;;;-0.39;45.01;100528.56;5046209;28;20485;-70
2022/03/12 05:01:54;;;;;;;16.80;6.60;;;;;;;-0.38;45.05;100537.25;5028692;28;20047;-70
2022/03/12 05:04:20;;;;;;;19.40;6.95;;;;;;;-0.39;44.96;100530.34;5061472;28;20025;-70
2022/03/12 05:06:45;;;;;;;14.82;6.72;;;;;;;-0.43;45.01;100541.00;5061774;28;20121;-71
2022/03/12 05:09:11;;;;;;;13.00;7.57;;;;;;;-0.48;45.32;100529.97;5061375;28;20497;-70
2022/03/12 05:11:39;;;;;;;12.20;6.53;;;;;;;-0.43;45.33;100555.91;5046385;28;20401;-70
2022/03/12 05:14:06;;;;;;;17.30;6.95;;;;;;;-0.43;45.17;100546.25;5060803;28;20041;-71
2022/03/12 05:16:33;;;;;;;13.88;6.82;;;;;;;-0.38;45.03;100543.34;5044469;28;20036;-71
2022/03/12 05:18:58;;;;;;;;;;;;;;;-0.39;45.18;100559.19;5044572;28;20166;-71
2022/03/12 05:21:24;;;;;;;14.88;6.22;;;;;;;-0.51;45.28;100543.28;5045036;28;20386;-71
2022/03/12 05:23:50;;;;;;;17.45;6.90;;;;;;;-0.44;45.49;100573.44;5044717;28;20052;-71
2022/03/12 05:26:15;;;;;;;17.63;6.07;;;;;;;-0.50;45.50;100570.34;5061493;28;20920;-70
2022/03/12 05:28:41;;;;;;;13.80;6.25;;;;;;;-0.43;45.25;100585.59;5045777;28;20417;-70
2022/03/12 05:31:09;;;;;;;16.05;7.00;;;;;;;-0.43;45.09;100563.78;5061595;28;20076;-71
2022/03/12 05:33:35;;;;;;;18.67;7.43;;;;;;;-0.51;45.13;100545.91;5045854;28;20572;-71
2022/03/12 05:36:01;;;;;;;15.75;6.53;;;;;;;-0.51;45.07;100540.66;5045465;28;20099;-71
2022/03/12 05:38:31;;;;;;;17.23;7.53;;;;;;;-0.48;45.00;100545.72;5061298;28;20033;-71
2022/03/12 05:40:58;;;;;;;17.40;7.97;;;;;;;-0.47;44.67;100542.16;5061152;28;20044;-71
2022/03/12 05:43:26;;;;;;;13.23;6.90;;;;;;;-0.43;44.68;100550.66;5045208;28;20031;-71
2022/03/12 05:45:52;;;;;;;19.10;6.70;;;;;;;-0.45;44.57;100537.63;5027152;28;20525;-71
2022/03/12 05:48:19;;;;;;;16.00;6.75;;;;;;;-0.41;44.47;100542.72;5028202;28;20032;-71
2022/03/12 05:50:47;;;;;;;18.10;7.93;;;;;;;-0.42;44.67;100562.84;5060665;28;20053;-71
2022/03/12 05:53:17;;;;;;;14.38;7.10;;;;;;;-0.40;44.51;100560.13;5045687;28;20031;-71
2022/03/12 05:55:43;;;;;;;16.38;6.95;;;;;;;-0.44;44.88;100576.06;5027781;28;20036;-71
2022/03/12 05:58:10;;;;;;;12.95;6.00;;;;;;;-0.40;44.70;100586.34;5061228;28;20036;-70
2022/03/12 06:00:38;;;;;;;20.60;7.90;;;;;;;-0.44;44.76;100575.22;5043811;28;21022;-70
2022/03/12 06:03:03;;;;;;;16.67;7.35;;;;;;;-0.41;44.61;100580.28;5045651;28;20091;-70
2022/03/12 06:05:29;;;;;;;15.55;7.82;;;;;;;-0.38;44.64;100600.22;5060525;28;20509;-70
2022/03/12 06:07:55;;;;;;;13.50;6.63;;;;;;;-0.41;44.72;100601.25;5061085;28;20103;-70
2022/03/12 06:10:25;;;;;;;15.57;7.78;;;;;;;-0.42;44.97;100615.31;5060594;28;20948;-72
2022/03/12 06:12:53;;;;;;;18.98;6.90;;;;;;;-0.33;44.60;100629.63;5045573;28;20043;-71
2022/03/12 06:15:20;;;;;;;18.15;7.65;;;;;;;-0.28;44.47;100617.06;5044178;28;20068;-72
2022/03/12 06:17:47;;;;;;;16.45;7.20;;;;;;;-0.32;44.75;100621.66;5045563;28;20037;-70
2022/03/12 06:20:15;;;;;;;15.90;6.55;;;;;;;-0.30;44.88;100653.91;5060724;28;20640;-70
2022/03/12 06:22:41;;;;;;;20.05;7.00;;;;;;;-0.37;44.91;100639.47;5045282;28;20047;-70
2022/03/12 06:25:10;;;;;;;13.88;7.00;;;;;;;-0.33;44.89;100661.09;5044861;28;20397;-70
2022/03/12 06:27:37;;;;;;;17.17;6.90;;;;;;;-0.29;44.78;100659.97;5027398;28;20445;-70
2022/03/12 06:30:06;;;;;;;11.90;6.30;;;;;;;-0.25;44.79;100657.06;5060497;28;20108;-70
2022/03/12 06:32:32;;;;;;;17.85;6.57;;;;;;;-0.22;44.65;100670.00;5060727;28;20494;-70
2022/03/12 06:34:58;;;;;;;16.07;6.37;;;;;;;-0.17;44.56;100661.00;5043820;28;20024;-70
2022/03/12 06:37:24;;;;;;;15.68;6.72;;;;;;;-0.16;44.08;100655.66;5044951;28;20294;-71
2022/03/12 06:39:49;;;;;;;13.63;6.38;;;;;;;-0.11;44.58;100686.88;5045137;28;20366;-70
2022/03/12 06:42:14;;;;;;;16.05;7.20;;;;;;;-0.07;44.49;100690.97;5043778;28;20567;-70
2022/03/12 06:44:42;;;;;;;15.73;7.77;;;;;;;0.11;44.27;100720.50;5060649;28;20579;-70
2022/03/12 06:47:09;;;;;;;14.43;7.00;;;;;;;0.61;43.80;100784.75;5044970;28;20083;-70
2022/03/12 06:49:38;;;;;;;16.92;7.57;;;;;;;1.06;42.96;100790.63;5060213;28;20551;-71
2022/03/12 06:52:05;;;;;;;18.42;8.15;;;;;;;1.02;42.40;100707.63;5043741;28;20029;-71
2022/03/12 06:54:31;;;;;;;19.48;8.07;;;;;;;1.25;41.94;100706.09;5044638;28;20040;-70
2022/03/12 06:56:57;;;;;;;18.98;7.72;;;;;;;1.16;41.72;100644.41;5047267;28;20033;-70
2022/03/12 06:59:23;;;;;;;15.40;7.55;;;;;;;1.55;42.22;100792.63;5048409;28;20036;-70
2022/03/12 07:01:48;;;;;;;15.87;8.17;;;;;;;1.48;41.74;100744.00;5047836;28;20104;-71
2022/03/12 07:04:14;;;;;;;13.18;7.00;;;;;;;1.68;41.62;100756.59;5048197;28;20044;-70
2022/03/12 07:06:39;;;;;;;15.83;7.07;;;;;;;1.62;40.99;100649.16;5048406;28;20106;-71
2022/03/12 07:09:05;;;;;;;15.73;7.07;;;;;;;1.38;41.49;100630.66;5048039;28;20268;-70
2022/03/12 07:11:31;;;;;;;15.10;7.53;;;;;;;1.67;41.56;100733.88;5030429;28;20029;-69
2022/03/12 07:13:57;;;;;;;15.27;7.25;;;;;;;1.67;40.75;100665.44;5048219;28;20134;-70
2022/03/12 07:16:24;;;;;;;12.20;6.43;;;;;;;1.82;40.94;100700.38;5063621;28;20055;-70
2022/03/12 07:18:50;;;;;;;17.55;8.52;;;;;;;1.81;40.77;100679.44;5063453;28;20029;-71
2022/03/12 07:21:15;;;;;;;16.77;7.27;;;;;;;1.94;40.64;100703.09;5048375;28;20117;-70
2022/03/12 07:23:41;;;;;;;15.67;7.00;;;;;;;1.71;40.79;100629.25;5048028;28;20385;-70
2022/03/12 07:26:08;;;;;;;17.50;7.53;;;;;;;1.65;40.38;100625.25;5063651;28;20045;-71
2022/03/12 07:28:33;;;;;;;;;;;;;;;1.69;40.30;100600.41;5063775;28;20040;-71
2022/03/12 07:31:00;;;;;;;17.77;7.25;;;;;;;1.73;40.57;100618.59;5013896;28;19908;-71
2022/03/12 07:33:26;;;;;;;16.80;8.00;;;;;;;1.95;40.29;100674.06;5030326;28;21018;-70
2022/03/12 07:35:51;;;;;;;;;;;;;;;1.84;40.30;100630.03;5030516;28;20102;-70
2022/03/12 07:38:17;;;;;;;19.45;8.50;;;;;;;1.83;40.62;100643.34;5048057;28;19908;-70
2022/03/12 07:40:42;;;;;;;14.20;7.00;;;;;;;2.05;40.24;100706.66;5047519;28;20056;-70
2022/03/12 07:43:08;;;;;;;16.85;6.97;;;;;;;2.40;40.15;100768.34;5048150;28;20037;-70
2022/03/12 07:45:34;;;;;;;20.13;7.45;;;;;;;2.23;39.66;100659.75;5047379;28;20025;-70
2022/03/12 07:47:59;;;;;;;17.40;7.10;;;;;;;2.60;39.77;100748.44;5029210;28;20037;-70
2022/03/12 07:50:26;;;;;;;17.10;7.47;;;;;;;2.99;39.46;100812.44;5062365;28;20036;-71
2022/03/12 07:52:52;;;;;;;15.30;7.93;;;;;;;2.85;38.70;100639.41;5063398;28;20040;-71
2022/03/12 07:55:18;;;;;;;;;;;;;;;2.69;39.03;100650.25;5030105;28;20559;-71
2022/03/12 07:57:43;;;;;;;14.00;6.95;;;;;;;2.69;38.88;100621.25;5047888;28;19912;-71
2022/03/12 08:00:11;;;;;;;14.00;6.72;;;;;;;2.70;39.06;100650.16;5046048;28;20061;-71
2022/03/12 08:02:41;;;;;;;17.77;6.53;;;;;;;3.23;38.92;100746.47;5062963;28;20044;-70
2022/03/12 08:05:07;;;;;;;16.58;7.18;;;;;;;3.38;38.44;100732.97;5047243;28;20043;-70
2022/03/12 08:07:33;;;;;;;14.60;6.95;;;;;;;3.35;37.83;100627.63;5046529;28;20020;-71
2022/03/12 08:09:59;;;;;;;15.30;8.10;;;;;;;4.28;37.53;100823.84;5045837;28;20123;-71
2022/03/12 08:12:31;;;;;;;15.25;7.05;;;;;;;3.41;36.87;100482.97;5046805;28;20028;-71
2022/03/12 08:15:00;;;;;;;18.05;8.45;;;;;;;3.38;37.79;100584.34;5046970;28;20029;-71
2022/03/12 08:17:25;;;;;;;;;;;;;;;3.85;37.73;100718.88;5047822;28;20131;-71
2022/03/12 08:19:51;;;;;;;;;;;;;;;3.84;36.96;100603.59;5062573;28;20066;-71
2022/03/12 08:22:16;;;;;;;15.05;7.70;;;;;;;4.13;37.08;100691.94;5047029;28;19916;-71
2022/03/12 08:24:42;;;;;;;17.75;7.93;;;;;;;4.92;36.49;100812.59;5029070;28;20040;-71
2022/03/12 08:27:08;;;;;;;15.77;8.55;;;;;;;4.75;36.01;100631.44;5044645;28;20040;-71
2022/03/12 08:29:33;;;;;;;15.20;7.00;;;;;;;4.25;36.18;100521.00;5027212;28;20043;-71
2022/03/12 08:31:58;;;;;;;15.33;7.70;;;;;;;4.17;36.22;100519.00;5060322;28;20028;-71
2022/03/12 08:34:24;;;;;;;15.57;7.40;;;;;;;4.84;36.20;100710.03;5060107;28;20037;-72
2022/03/12 08:36:50;;;;;;;17.07;8.80;;;;;;;4.89;36.08;100657.56;5045275;28;20102;-72
2022/03/12 08:39:15;;;;;;;19.50;8.10;;;;;;;5.55;35.72;100757.06;5027308;28;20290;-72
2022/03/12 08:41:41;;;;;;;16.85;7.57;;;;;;;5.83;34.89;100706.09;5045941;28;20032;-72
2022/03/12 08:44:09;;;;;;;15.07;7.00;;;;;;;5.13;35.31;100542.69;5061956;28;20025;-72
2022/03/12 08:46:35;;;;;;;14.75;8.10;;;;;;;5.46;35.88;100711.88;5045271;28;20039;-71
2022/03/12 08:49:01;;;;;;;13.90;7.72;;;;;;;5.53;34.92;100560.44;5046659;28;20033;-71
2022/03/12 08:51:27;;;;;;;15.75;8.85;;;;;;;5.47;35.73;100655.28;5046315;28;20047;-71
2022/03/12 08:53:52;;;;;;;14.10;8.00;;;;;;;6.32;34.87;100786.69;5046351;28;20028;-72
2022/03/12 08:56:18;;;;;;;15.93;7.67;;;;;;;6.01;34.21;100589.69;5046435;28;20536;-71
2022/03/12 08:58:44;;;;;;;13.07;6.65;;;;;;;6.43;33.76;100642.50;5046258;28;20393;-71
2022/03/12 09:01:10;;;;;;;13.27;7.10;;;;;;;6.03;34.74;100578.97;5044884;28;20080;-71
2022/03/12 09:03:36;;;;;;;13.13;7.63;;;;;;;6.76;34.48;100776.56;5044770;28;20025;-71
2022/03/12 09:06:03;;;;;;;17.67;7.88;;;;;;;6.45;33.24;100515.06;5061443;28;20040;-71
2022/03/12 09:08:28;;;;;;;;;;;;;;;5.63;33.38;100307.84;5062074;28;20041;-71
2022/03/12 09:10:54;;;;;;;;;;;;;;;5.30;34.05;100319.72;5046835;28;19995;-71
2022/03/12 09:13:20;;;;;;;14.13;6.57;;;;;;;5.78;33.99;100459.25;5046000;28;19917;-71
2022/03/12 09:15:46;;;;;;;13.25;7.50;;;;;;;6.16;33.83;100505.34;5061202;28;20040;-71
2022/03/12 09:18:12;;;;;;;14.63;7.47;;;;;;;6.14;33.81;100478.13;5044250;28;20021;-71
2022/03/12 09:20:43;;;;;;;14.10;6.93;;;;;;;6.25;33.84;100532.78;5045862;28;20045;-71
2022/03/12 09:23:09;;;;;;;14.25;8.45;;;;;;;5.80;33.42;100321.34;5045853;28;20036;-71
2022/03/12 09:25:34;;;;;;;15.00;6.78;;;;;;;5.56;33.60;100327.94;5044632;28;20023;-71
2022/03/12 09:28:01;;;;;;;14.03;7.30;;;;;;;5.97;33.82;100453.16;5044721;28;20658;-71
2022/03/12 09:30:27;;;;;;;14.02;7.30;;;;;;;6.09;33.03;100379.66;5045525;28;20107;-71
2022/03/12 09:32:53;;;;;;;13.68;7.70;;;;;;;6.50;33.28;100532.22;5044280;28;20489;-71
2022/03/12 09:35:19;;;;;;;20.55;8.38;;;;;;;6.88;32.56;100562.34;5044665;28;20029;-71
2022/03/12 09:37:45;;;;;;;14.85;7.82;;;;;;;7.19;31.81;100512.50;5045964;28;20041;-71
2022/03/12 09:40:11;;;;;;;14.73;7.72;;;;;;;6.89;32.13;100375.59;5061020;28;20029;-71
2022/03/12 09:42:37;;;;;;;11.15;7.40;;;;;;;6.96;33.03;100524.47;5027531;28;20136;-71
2022/03/12 09:45:03;;;;;;;14.68;7.32;;;;;;;7.09;32.20;100477.19;5045474;28;20116;-71
2022/03/12 09:47:29;;;;;;;13.43;8.43;;;;;;;7.91;31.77;100628.78;5060463;28;20029;-71
2022/03/12 09:49:55;;;;;;;15.87;8.00;;;;;;;7.11;31.32;100299.19;5045431;28;20036;-72
2022/03/12 09:52:20;;;;;;;16.42;7.45;;;;;;;7.83;32.06;100608.25;5060622;28;20033;-71
2022/03/12 09:54:47;;;;;;;16.77;6.77;;;;;;;7.28;31.30;100355.94;5043912;28;20101;-71
2022/03/12 09:57:13;;;;;;;11.52;7.03;;;;;;;7.24;31.24;100333.34;5045249;28;20032;-71
2022/03/12 09:59:38;;;;;;;12.80;7.17;;;;;;;7.98;31.05;100473.88;5045027;28;20033;-71
2022/03/12 10:02:04;;;;;;;12.98;7.15;;;;;;;7.52;31.21;100368.63;5045408;28;20572;-71
2022/03/12 10:04:29;;;;;;;11.87;6.73;;;;;;;7.12;31.58;100346.00;5065339;28;20083;-71
2022/03/12 10:06:56;;;;;;;14.93;7.60;;;;;;;7.19;31.34;100284.16;5050872;28;20496;-71
2022/03/12 10:09:22;;;;;;;12.20;6.93;;;;;;;8.02;31.52;100567.44;5065300;28;20028;-71
2022/03/12 10:11:51;;;;;;;14.30;7.00;;;;;;;7.82;30.85;100386.00;5064649;28;20096;-71
2022/03/12 10:16:46;;;;;;;11.77;6.32;;;;;;;7.77;30.69;100324.47;5026278;28;20056;-89
2022/03/12 10:19:11;;;;;;;14.50;8.10;;;;;;;8.28;30.72;100461.13;5026306;28;20045;-90
2022/03/12 10:21:42;;;;;;;12.10;6.00;;;;;;;7.36;30.46;100156.84;5000524;28;20069;-88
2022/03/12 10:24:10;;;;;;;11.73;6.65;;;;;;;7.74;30.56;100293.75;5000213;28;20486;-88
2022/03/12 10:26:37;;;;;;;14.32;7.00;;;;;;;7.47;30.26;100196.44;5003595;28;20018;-88
2022/03/12 10:29:03;;;;;;;13.48;7.57;;;;;;;8.02;30.42;100336.13;4993675;28;20040;-89
2022/03/12 10:31:29;;;;;;;12.50;7.07;;;;;;;8.65;29.86;100382.91;4995601;28;20105;-89
2022/03/12 10:34:23;;;;;;;12.67;7.23;;;;;;;8.00;30.03;100224.63;4993454;28;20498;-87
2022/03/12 10:36:54;;;;;;;14.75;6.97;;;;;;;7.85;30.34;100218.25;5012541;28;20831;-88
2022/03/12 10:39:34;;;;;;;12.93;6.80;;;;;;;8.26;30.30;100303.53;5012718;28;20163;-88
2022/03/12 10:42:01;;;;;;;14.80;7.70;;;;;;;8.44;29.94;100314.97;4996579;28;20034;-90
2022/03/12 10:44:35;;;;;;;12.32;6.72;;;;;;;8.35;29.78;100277.81;4995913;28;20083;-89
2022/03/12 10:47:01;;;;;;;10.68;6.15;;;;;;;8.67;29.77;100338.34;5013658;28;20084;-89
2022/03/12 10:49:26;;;;;;;13.88;7.80;;;;;;;9.03;29.58;100408.19;4995987;28;20116;-90
2022/03/12 10:51:56;;;;;;;15.00;6.90;;;;;;;9.24;29.21;100404.28;4996086;28;20096;-88
2022/03/12 10:54:22;;;;;;;13.85;7.57;;;;;;;9.00;29.00;100179.53;5013472;28;20286;-87
2022/03/12 10:56:54;;;;;;;11.85;7.45;;;;;;;8.85;29.75;100266.38;5012105;28;20029;-88
2022/03/12 10:59:22;;;;;;;13.30;6.95;;;;;;;8.88;29.53;100260.72;5013079;28;20060;-88
2022/03/12 11:02:01;;;;;;;13.02;7.07;;;;;;;8.86;29.41;100217.47;5012027;28;20033;-89
2022/03/12 11:04:34;;;;;;;14.35;7.30;;;;;;;8.56;29.15;100112.47;5012246;28;20084;-88
2022/03/12 11:07:20;;;;;;;19.83;6.57;;;;;;;9.45;29.32;100353.19;5011875;28;20123;-89
2022/03/12 11:09:47;;;;;;;18.45;6.90;;;;;;;9.28;29.18;100264.44;5012276;28;20044;-87
2022/03/12 11:12:46;;;;;;;12.75;6.40;;;;;;;9.65;29.16;100391.03;5012642;28;20026;-87
2022/03/12 11:15:15;;;;;;;16.35;7.45;;;;;;;10.07;28.89;100438.06;4984790;28;20041;-88
2022/03/12 11:17:46;;;;;;;9.75;6.57;;;;;;;8.92;28.69;100075.72;4996111;28;20033;-87
2022/03/12 11:20:21;;;;;;;16.40;7.18;;;;;;;9.84;28.90;100341.91;5012041;28;20033;-87
2022/03/12 11:23:29;;;;;;;13.25;8.30;;;;;;;9.33;28.43;100094.28;5012434;28;20037;-83
2022/03/12 11:26:07;;;;;;;11.52;6.85;;;;;;;9.80;29.31;100293.41;4971779;28;20674;-89
2022/03/12 11:28:37;;;;;;;12.85;8.00;;;;;;;10.25;28.45;100305.31;4955757;28;20531;-89
2022/03/12 11:31:05;;;;;;;12.50;6.80;;;;;;;9.10;28.61;100030.22;4978933;28;20402;-89